createdAt,value
2022-09-24T00:01:36.402Z,13.77
2022-09-24T00:04:06.710Z,15.27
2022-09-24T00:06:41.035Z,12.37
2022-09-24T00:09:08.958Z,16.90
2022-09-24T00:11:35.602Z,15.77
2022-09-24T00:14:02.271Z,14.93
2022-09-24T00:16:33.759Z,15.03
2022-09-24T00:19:02.713Z,15.90
2022-09-24T00:21:32.336Z,15.47
2022-09-24T00:24:05.584Z,12.13
2022-09-24T00:26:50.161Z,15.40
2022-09-24T00:29:22.834Z,13.67
2022-09-24T00:31:50.811Z,14.63
2022-09-24T00:34:17.912Z,13.90
2022-09-24T00:36:47.194Z,14.70
2022-09-24T00:39:14.630Z,16.33
2022-09-24T00:41:46.996Z,16.77
2022-09-24T00:44:44.769Z,15.70
2022-09-24T00:47:31.705Z,14.07
2022-09-24T00:50:10.115Z,17.97
2022-09-24T00:52:42.220Z,17.43
2022-09-24T00:55:09.700Z,18.57
2022-09-24T00:57:38.615Z,15.67
2022-09-24T01:00:07.292Z,16.20
2022-09-24T01:02:37.408Z,16.07
2022-09-24T01:05:04.750Z,16.50
2022-09-24T01:07:31.336Z,15.33
2022-09-24T01:09:57.988Z,17.33
2022-09-24T01:12:30.090Z,17.50
2022-09-24T01:15:28.720Z,15.43
2022-09-24T01:18:28.144Z,15.60
2022-09-24T01:21:10.806Z,17.63
2022-09-24T01:24:15.066Z,17.27
2022-09-24T01:26:58.829Z,15.07
2022-09-24T01:29:53.161Z,20.77
2022-09-24T01:32:32.605Z,19.30
2022-09-24T01:35:07.475Z,17.10
2022-09-24T01:37:36.426Z,21.27
2022-09-24T01:40:06.904Z,16.43
2022-09-24T01:42:34.790Z,18.50
2022-09-24T01:45:02.413Z,19.00
2022-09-24T01:47:39.525Z,16.33
2022-09-24T01:50:08.865Z,19.80
2022-09-24T01:52:58.170Z,20.00
2022-09-24T01:55:30.112Z,24.37
2022-09-24T01:58:03.297Z,17.80
2022-09-24T02:00:30.488Z,18.63
2022-09-24T02:03:06.580Z,18.80
2022-09-24T02:05:38.738Z,17.40
2022-09-24T02:08:18.441Z,19.20
2022-09-24T02:10:51.767Z,21.07
2022-09-24T02:13:21.310Z,19.03
2022-09-24T02:15:52.220Z,17.10
2022-09-24T02:18:23.486Z,16.90
2022-09-24T02:20:52.649Z,19.93
2022-09-24T02:23:20.484Z,22.30
2022-09-24T02:25:58.240Z,22.83
2022-09-24T02:28:25.870Z,20.87
2022-09-24T02:31:16.094Z,20.63
2022-09-24T02:34:04.819Z,25.00
2022-09-24T02:36:32.125Z,24.17
2022-09-24T02:38:59.211Z,21.00
2022-09-24T02:41:26.725Z,21.03
2022-09-24T02:43:53.880Z,23.73
2022-09-24T02:46:20.499Z,23.73
2022-09-24T02:48:47.109Z,22.77
2022-09-24T02:51:13.854Z,24.47
2022-09-24T02:53:40.412Z,26.10
2022-09-24T02:56:07.890Z,30.37
2022-09-24T02:58:34.679Z,26.03
2022-09-24T03:01:01.216Z,23.77
2022-09-24T03:03:28.402Z,26.53
2022-09-24T03:05:55.020Z,27.40
2022-09-24T03:08:23.745Z,24.90
2022-09-24T03:10:51.245Z,27.07
2022-09-24T03:13:18.933Z,28.73
2022-09-24T03:15:46.462Z,25.20
2022-09-24T03:18:13.790Z,32.43
2022-09-24T03:20:40.586Z,31.97
2022-09-24T03:23:07.284Z,27.70
2022-09-24T03:25:33.849Z,32.07
2022-09-24T03:28:00.477Z,26.90
2022-09-24T03:30:45.857Z,29.70
2022-09-24T03:33:12.552Z,32.07
2022-09-24T03:35:39.271Z,28.10
2022-09-24T03:38:05.793Z,36.27
2022-09-24T03:40:32.387Z,30.47
2022-09-24T03:42:58.964Z,31.17
2022-09-24T03:45:25.806Z,32.17
2022-09-24T03:47:52.410Z,31.47
2022-09-24T03:50:18.995Z,31.70
2022-09-24T03:52:45.527Z,35.60
2022-09-24T03:55:12.072Z,33.30
2022-09-24T03:57:38.606Z,27.80
2022-09-24T04:00:05.643Z,32.63
2022-09-24T04:02:32.253Z,35.00
2022-09-24T04:04:59.101Z,33.00
2022-09-24T04:07:25.642Z,36.60
2022-09-24T04:09:52.824Z,35.63
2022-09-24T04:12:19.970Z,35.17
2022-09-24T04:14:46.503Z,36.77
2022-09-24T04:17:14.307Z,33.57
2022-09-24T04:19:40.846Z,38.30
2022-09-24T04:22:07.374Z,31.60
2022-09-24T04:24:34.134Z,32.67
2022-09-24T04:27:00.683Z,40.57
2022-09-24T04:29:27.249Z,34.33
2022-09-24T04:31:53.917Z,31.10
2022-09-24T04:34:21.217Z,33.87
2022-09-24T04:36:47.777Z,33.93
2022-09-24T04:39:15.498Z,35.07
2022-09-24T04:41:42.065Z,31.90
2022-09-24T04:44:08.693Z,38.17
2022-09-24T04:46:35.436Z,37.33
2022-09-24T04:49:02.070Z,33.53
2022-09-24T04:51:28.715Z,32.03
2022-09-24T04:53:55.310Z,38.50
2022-09-24T04:56:22.079Z,43.23
2022-09-24T04:58:51.274Z,33.93
2022-09-24T05:01:18.688Z,35.70
2022-09-24T05:03:45.393Z,40.20
2022-09-24T05:06:12.466Z,39.53
2022-09-24T05:08:39.019Z,40.87
2022-09-24T05:11:05.993Z,35.70
2022-09-24T05:13:32.553Z,41.60
2022-09-24T05:16:00.846Z,33.87
2022-09-24T05:18:27.896Z,41.00
2022-09-24T05:20:54.691Z,39.80
2022-09-24T05:23:21.621Z,39.30
2022-09-24T05:26:07.017Z,35.63
2022-09-24T05:28:33.600Z,40.27
2022-09-24T05:31:00.397Z,35.17
2022-09-24T05:33:27.069Z,37.73
2022-09-24T05:36:00.389Z,41.83
2022-09-24T05:38:27.031Z,33.97
2022-09-24T05:40:54.740Z,38.40
2022-09-24T05:43:21.842Z,34.00
2022-09-24T05:45:51.103Z,32.97
2022-09-24T05:48:17.653Z,43.07
2022-09-24T05:50:44.236Z,39.27
2022-09-24T05:53:10.868Z,30.03
2022-09-24T05:55:37.415Z,40.13
2022-09-24T05:58:09.655Z,30.83
2022-09-24T06:00:36.460Z,34.60
2022-09-24T06:03:14.192Z,36.97
2022-09-24T06:05:46.249Z,31.77
2022-09-24T06:08:15.106Z,33.90
2022-09-24T06:10:42.900Z,33.13
2022-09-24T06:13:11.457Z,32.87
2022-09-24T06:15:38.755Z,31.00
2022-09-24T06:18:06.024Z,32.67
2022-09-24T06:20:33.583Z,41.13
2022-09-24T06:23:00.572Z,37.20
2022-09-24T06:25:27.179Z,31.57
2022-09-24T06:28:00.955Z,38.40
2022-09-24T06:30:29.512Z,32.17
2022-09-24T06:33:01.410Z,34.40
2022-09-24T06:35:28.261Z,34.10
2022-09-24T06:37:54.833Z,33.07
2022-09-24T06:40:21.525Z,34.37
2022-09-24T06:42:52.507Z,38.10
2022-09-24T06:45:20.807Z,35.37
2022-09-24T06:47:58.322Z,34.10
2022-09-24T06:50:26.670Z,35.10
2022-09-24T06:52:55.408Z,36.03
2022-09-24T06:55:22.313Z,33.93
2022-09-24T06:57:49.041Z,39.50
2022-09-24T07:00:16.225Z,36.80
2022-09-24T07:02:43.418Z,45.40
2022-09-24T07:05:10.201Z,42.83
2022-09-24T07:07:37.590Z,40.60
2022-09-24T07:10:06.417Z,39.60
2022-09-24T07:12:34.854Z,32.10
2022-09-24T07:15:01.703Z,41.17
2022-09-24T07:17:33.721Z,36.70
2022-09-24T07:20:00.765Z,35.17
2022-09-24T07:22:27.400Z,37.93
2022-09-24T07:24:54.006Z,40.00
2022-09-24T07:27:21.290Z,35.97
2022-09-24T07:29:48.971Z,34.53
2022-09-24T07:32:17.464Z,35.07
2022-09-24T07:34:44.111Z,38.67
2022-09-24T07:37:10.721Z,36.67
2022-09-24T07:39:37.413Z,39.03
2022-09-24T07:42:05.551Z,34.13
2022-09-24T07:44:32.136Z,34.37
2022-09-24T07:46:58.878Z,34.30
2022-09-24T07:49:25.704Z,41.17
2022-09-24T07:51:54.020Z,35.27
2022-09-24T07:54:20.788Z,32.67
2022-09-24T07:56:47.370Z,33.67
2022-09-24T07:59:14.024Z,30.20
2022-09-24T08:01:40.708Z,34.53
2022-09-24T08:04:07.927Z,27.67
2022-09-24T08:06:39.559Z,28.30
2022-09-24T08:09:07.977Z,31.30
2022-09-24T08:11:34.568Z,32.93
2022-09-24T08:14:01.194Z,29.10
2022-09-24T08:16:27.993Z,30.13
2022-09-24T08:18:55.226Z,27.80
2022-09-24T08:21:21.947Z,26.70
2022-09-24T08:23:48.587Z,32.87
2022-09-24T08:26:15.241Z,26.80
2022-09-24T08:28:42.218Z,28.10
2022-09-24T08:31:12.266Z,26.97
2022-09-24T08:33:39.185Z,29.07
2022-09-24T08:36:08.393Z,27.83
2022-09-24T08:38:35.218Z,27.27
2022-09-24T08:41:22.486Z,31.93
2022-09-24T08:44:03.699Z,31.97
2022-09-24T08:46:58.976Z,28.40
2022-09-24T08:49:30.855Z,31.17
2022-09-24T08:52:00.386Z,26.93
2022-09-24T08:54:29.788Z,33.50
2022-09-24T08:56:57.358Z,28.73
2022-09-24T08:59:30.330Z,27.63
2022-09-24T09:02:23.226Z,25.87
2022-09-24T09:05:06.970Z,30.98
2022-09-24T09:08:27.385Z,25.53
2022-09-24T09:10:59.927Z,24.50
2022-09-24T09:13:32.526Z,24.97
2022-09-24T09:16:07.580Z,20.60
2022-09-24T09:18:41.728Z,22.40
2022-09-24T09:21:38.030Z,23.70
2022-09-24T09:24:06.029Z,23.63
2022-09-24T09:26:32.646Z,22.37
2022-09-24T09:29:02.724Z,22.73
2022-09-24T09:31:39.653Z,21.27
2022-09-24T09:34:40.776Z,20.50
2022-09-24T09:37:32.595Z,19.20
2022-09-24T09:40:27.691Z,19.73
2022-09-24T09:43:09.071Z,19.67
2022-09-24T09:46:07.628Z,21.83
2022-09-24T09:48:58.041Z,20.97
2022-09-24T09:51:26.808Z,25.40
2022-09-24T09:54:04.033Z,21.83
2022-09-24T09:56:43.504Z,23.20
2022-09-24T09:59:13.124Z,23.47
2022-09-24T10:01:46.093Z,18.17
2022-09-24T10:04:22.021Z,22.30
2022-09-24T10:06:48.642Z,23.00
2022-09-24T10:09:22.536Z,19.97
2022-09-24T10:11:49.249Z,20.27
2022-09-24T10:14:18.889Z,19.60
2022-09-24T10:16:50.621Z,19.47
2022-09-24T10:19:19.801Z,21.37
2022-09-24T10:21:46.766Z,20.57
2022-09-24T10:24:22.708Z,21.50
2022-09-24T10:26:50.013Z,19.47
2022-09-24T10:29:36.440Z,19.33
2022-09-24T10:32:13.175Z,16.83
2022-09-24T10:34:39.762Z,17.90
2022-09-24T10:37:18.872Z,17.43
2022-09-24T10:39:45.471Z,17.77
2022-09-24T10:42:26.481Z,14.50
2022-09-24T10:44:54.535Z,17.88
2022-09-24T10:47:49.301Z,13.83
2022-09-24T10:50:39.630Z,16.63
2022-09-24T10:53:29.425Z,13.00
2022-09-24T10:56:23.457Z,13.63
2022-09-24T10:59:07.652Z,15.90
2022-09-24T11:02:14.055Z,16.83
2022-09-24T11:04:50.481Z,15.60
2022-09-24T11:07:41.202Z,13.17
2022-09-24T11:10:23.197Z,14.93
2022-09-24T11:13:07.838Z,16.10
2022-09-24T11:15:50.879Z,16.30
2022-09-24T11:18:51.260Z,15.67
2022-09-24T11:21:37.869Z,16.43
2022-09-24T11:24:25.709Z,15.10
2022-09-24T11:27:07.281Z,17.70
2022-09-24T11:29:39.957Z,15.73
2022-09-24T11:32:09.510Z,14.93
2022-09-24T11:35:00.622Z,18.30
2022-09-24T11:37:37.844Z,19.27
2022-09-24T11:40:36.726Z,16.57
2022-09-24T11:43:21.440Z,18.00
2022-09-24T11:45:51.109Z,16.77
2022-09-24T11:48:50.986Z,15.73
2022-09-24T11:51:39.258Z,16.07
2022-09-24T11:54:17.818Z,22.50
2022-09-24T11:56:50.520Z,17.93
2022-09-24T11:59:40.421Z,15.43
2022-09-24T12:02:20.234Z,14.30
2022-09-24T12:04:53.001Z,17.03
2022-09-24T12:07:36.523Z,14.37
2022-09-24T12:10:36.733Z,15.33
2022-09-24T12:13:14.121Z,15.07
2022-09-24T12:15:56.343Z,16.33
2022-09-24T12:18:27.541Z,16.77
2022-09-24T12:21:12.886Z,16.37
2022-09-24T12:23:46.141Z,16.50
2022-09-24T12:26:17.165Z,15.83
2022-09-24T12:29:09.254Z,12.80
2022-09-24T12:32:15.608Z,13.60
2022-09-24T12:34:50.667Z,12.30
2022-09-24T12:37:23.493Z,15.23
2022-09-24T12:40:12.326Z,15.07
2022-09-24T12:42:56.628Z,16.03
2022-09-24T12:45:25.085Z,15.47
2022-09-24T12:48:02.666Z,15.00
2022-09-24T12:50:33.241Z,11.77
2022-09-24T12:53:00.417Z,14.83
2022-09-24T12:55:30.681Z,15.53
2022-09-24T12:58:01.976Z,14.90
2022-09-24T13:00:34.759Z,10.97
2022-09-24T13:03:03.073Z,10.43
2022-09-24T13:05:45.793Z,11.07
2022-09-24T13:08:19.945Z,11.00
2022-09-24T13:10:57.189Z,11.87
2022-09-24T13:13:36.117Z,12.33
2022-09-24T13:16:04.531Z,13.37
2022-09-24T13:18:34.344Z,12.77
2022-09-24T13:21:03.061Z,12.07
2022-09-24T13:23:52.149Z,9.23
2022-09-24T13:26:24.942Z,11.40
2022-09-24T13:29:01.329Z,12.30
2022-09-24T13:31:40.863Z,11.23
2022-09-24T13:34:10.446Z,8.00
2022-09-24T13:36:52.076Z,9.10
2022-09-24T13:39:44.075Z,10.10
2022-09-24T13:42:45.695Z,8.80
2022-09-24T13:45:18.724Z,9.13
2022-09-24T13:47:53.122Z,9.63
2022-09-24T13:50:25.009Z,8.73
2022-09-24T13:53:02.186Z,7.33
2022-09-24T13:55:34.064Z,7.10
2022-09-24T13:58:01.086Z,6.47
2022-09-24T14:00:29.296Z,7.57
2022-09-24T14:03:14.637Z,7.33
2022-09-24T14:05:41.748Z,7.60
2022-09-24T14:08:12.727Z,9.53
2022-09-24T14:10:40.161Z,7.13
2022-09-24T14:13:22.028Z,10.50
2022-09-24T14:15:56.486Z,8.00
2022-09-24T14:18:24.712Z,8.03
2022-09-24T14:20:59.346Z,7.87
2022-09-24T14:23:31.046Z,5.30
2022-09-24T14:25:58.541Z,6.30
2022-09-24T14:28:25.637Z,8.00
2022-09-24T14:30:55.226Z,6.03
2022-09-24T14:33:30.244Z,7.07
2022-09-24T14:35:59.881Z,4.50
2022-09-24T14:38:35.865Z,4.73
2022-09-24T14:41:15.122Z,4.97
2022-09-24T14:43:44.691Z,4.87
2022-09-24T14:46:34.140Z,4.70
2022-09-24T14:49:06.217Z,4.73
2022-09-24T14:51:33.095Z,4.00
2022-09-24T14:54:01.990Z,3.73
2022-09-24T14:56:31.278Z,3.40
2022-09-24T14:58:58.961Z,3.63
2022-09-24T15:01:31.723Z,2.57
2022-09-24T15:04:05.206Z,3.63
2022-09-24T15:06:37.056Z,2.70
2022-09-24T15:09:05.059Z,3.27
2022-09-24T15:11:36.789Z,3.40
2022-09-24T15:14:19.961Z,2.90
2022-09-24T15:16:47.521Z,2.67
2022-09-24T15:19:20.368Z,2.93
2022-09-24T15:21:52.505Z,2.07
2022-09-24T15:24:20.239Z,1.83
2022-09-24T15:27:08.509Z,2.20
2022-09-24T15:29:35.118Z,1.50
2022-09-24T15:32:02.229Z,1.93
2022-09-24T15:34:28.924Z,1.83
2022-09-24T15:37:01.473Z,1.40
2022-09-24T15:39:28.589Z,1.43
2022-09-24T15:41:55.197Z,1.77
2022-09-24T15:44:26.245Z,1.50
2022-09-24T15:46:56.889Z,1.90
2022-09-24T15:49:23.925Z,3.07
2022-09-24T15:52:02.319Z,1.73
2022-09-24T15:54:28.984Z,4.97
2022-09-24T15:56:55.629Z,1.70
2022-09-24T15:59:23.396Z,1.80
2022-09-24T16:01:53.232Z,1.93
2022-09-24T16:04:20.376Z,2.63
2022-09-24T16:06:47.021Z,2.03
2022-09-24T16:09:13.645Z,3.00
2022-09-24T16:11:40.273Z,2.93
2022-09-24T16:14:07.404Z,2.27
2022-09-24T16:16:34.250Z,3.73
2022-09-24T16:19:00.905Z,2.47
2022-09-24T16:21:27.501Z,5.00
2022-09-24T16:23:55.399Z,2.73
2022-09-24T16:26:22.009Z,1.80
2022-09-24T16:28:51.141Z,2.07
2022-09-24T16:31:19.196Z,1.97
2022-09-24T16:33:46.073Z,2.37
2022-09-24T16:36:13.091Z,2.30
2022-09-24T16:38:40.190Z,3.30
2022-09-24T16:41:07.825Z,2.67
2022-09-24T16:43:34.414Z,2.20
2022-09-24T16:46:03.540Z,2.57
2022-09-24T16:48:31.316Z,1.73
2022-09-24T16:51:08.305Z,3.33
2022-09-24T16:53:35.701Z,1.40
2022-09-24T16:56:08.317Z,1.80
2022-09-24T16:58:35.458Z,2.10
2022-09-24T17:01:10.941Z,3.10
2022-09-24T17:03:38.557Z,3.30
2022-09-24T17:06:06.305Z,2.47
2022-09-24T17:08:52.994Z,1.90
2022-09-24T17:11:20.514Z,2.60
2022-09-24T17:13:47.759Z,3.10
2022-09-24T17:16:15.724Z,2.33
2022-09-24T17:18:42.450Z,2.70
2022-09-24T17:21:11.820Z,2.60
2022-09-24T17:23:39.286Z,2.80
2022-09-24T17:26:17.958Z,2.23
2022-09-24T17:28:46.464Z,4.33
2022-09-24T17:31:15.681Z,5.93
2022-09-24T17:33:44.060Z,4.87
2022-09-24T17:36:13.958Z,5.07
2022-09-24T17:38:40.579Z,6.03
2022-09-24T17:41:11.781Z,6.13
2022-09-24T17:43:39.866Z,8.50
2022-09-24T17:46:14.325Z,9.13
2022-09-24T17:48:44.786Z,9.33
2022-09-24T17:51:19.826Z,9.03
2022-09-24T17:53:46.940Z,10.77
2022-09-24T17:56:14.697Z,11.33
2022-09-24T17:58:43.700Z,12.67
2022-09-24T18:01:17.363Z,10.97
2022-09-24T18:03:44.969Z,12.37
2022-09-24T18:06:14.808Z,12.90
2022-09-24T18:08:43.754Z,11.30
2022-09-24T18:11:15.330Z,14.20
2022-09-24T18:13:42.094Z,13.47
2022-09-24T18:16:14.257Z,17.80
2022-09-24T18:18:42.498Z,13.80
2022-09-24T18:21:13.876Z,13.80
2022-09-24T18:23:41.101Z,12.77
2022-09-24T18:26:11.966Z,13.40
2022-09-24T18:28:40.492Z,15.33
2022-09-24T18:31:09.454Z,17.90
2022-09-24T18:33:38.755Z,17.33
2022-09-24T18:36:07.743Z,17.00
2022-09-24T18:38:34.868Z,18.47
2022-09-24T18:41:08.258Z,19.33
2022-09-24T18:43:35.384Z,17.67
2022-09-24T18:46:08.465Z,15.67
2022-09-24T18:48:35.325Z,18.20
2022-09-24T18:51:01.958Z,15.77
2022-09-24T18:53:31.299Z,17.13
2022-09-24T18:56:03.216Z,19.30
2022-09-24T18:58:29.778Z,16.47
2022-09-24T19:01:01.773Z,15.37
2022-09-24T19:03:29.809Z,12.47
2022-09-24T19:06:01.212Z,16.10
2022-09-24T19:08:31.946Z,15.30
2022-09-24T19:11:09.129Z,12.47
2022-09-24T19:13:38.943Z,13.43
2022-09-24T19:16:11.912Z,13.23
2022-09-24T19:18:39.713Z,13.37
2022-09-24T19:21:08.720Z,13.52
2022-09-24T19:23:37.235Z,12.77
2022-09-24T19:26:04.638Z,11.80
2022-09-24T19:28:31.495Z,9.17
2022-09-24T19:30:58.188Z,11.53
2022-09-24T19:33:25.523Z,10.47
2022-09-24T19:36:02.020Z,10.83
2022-09-24T19:38:35.576Z,10.67
2022-09-24T19:41:03.931Z,13.63
2022-09-24T19:43:33.469Z,10.73
2022-09-24T19:46:03.476Z,10.13
2022-09-24T19:48:31.941Z,11.67
2022-09-24T19:51:03.492Z,11.50
2022-09-24T19:53:34.137Z,9.60
2022-09-24T19:56:01.371Z,10.73
2022-09-24T19:58:27.995Z,8.67
2022-09-24T20:00:54.891Z,9.00
2022-09-24T20:03:21.450Z,9.53
2022-09-24T20:05:48.032Z,11.23
2022-09-24T20:08:14.984Z,9.47
2022-09-24T20:10:42.325Z,9.73
2022-09-24T20:13:12.910Z,11.87
2022-09-24T20:15:41.285Z,8.43
2022-09-24T20:18:11.624Z,10.40
2022-09-24T20:20:41.927Z,10.13
2022-09-24T20:23:09.995Z,7.83
2022-09-24T20:25:55.110Z,10.63
2022-09-24T20:28:21.753Z,11.63
2022-09-24T20:30:48.503Z,10.27
2022-09-24T20:33:15.268Z,8.90
2022-09-24T20:35:42.204Z,14.37
2022-09-24T20:38:09.374Z,7.17
2022-09-24T20:40:39.711Z,10.77
2022-09-24T20:43:06.303Z,11.13
2022-09-24T20:45:33.109Z,10.27
2022-09-24T20:48:00.452Z,8.47
2022-09-24T20:50:27.053Z,9.30
2022-09-24T20:52:53.608Z,8.40
2022-09-24T20:55:20.164Z,8.50
2022-09-24T20:57:46.983Z,8.43
2022-09-24T21:00:14.979Z,8.70
2022-09-24T21:02:41.868Z,6.20
2022-09-24T21:05:10.347Z,9.63
2022-09-24T21:07:40.782Z,9.10
2022-09-24T21:10:10.287Z,8.53
2022-09-24T21:12:38.420Z,7.43
2022-09-24T21:15:09.182Z,7.73
2022-09-24T21:17:36.022Z,7.47
2022-09-24T21:20:02.692Z,5.80
2022-09-24T21:22:29.420Z,4.80
2022-09-24T21:24:56.065Z,6.40
2022-09-24T21:27:22.716Z,5.40
2022-09-24T21:29:49.293Z,4.20
2022-09-24T21:32:19.041Z,7.13
2022-09-24T21:34:45.638Z,4.40
2022-09-24T21:37:15.377Z,3.73
2022-09-24T21:39:44.380Z,2.80
2022-09-24T21:42:11.375Z,3.33
2022-09-24T21:44:38.478Z,2.23
2022-09-24T21:47:05.329Z,3.17
2022-09-24T21:49:33.486Z,3.73
2022-09-24T21:52:00.225Z,4.10
2022-09-24T21:54:26.776Z,2.67
2022-09-24T21:56:54.365Z,2.20
2022-09-24T21:59:39.628Z,3.33
2022-09-24T22:02:06.236Z,3.77
2022-09-24T22:04:34.101Z,5.83
2022-09-24T22:07:01.109Z,1.90
2022-09-24T22:09:28.501Z,3.30
2022-09-24T22:11:55.856Z,3.80
2022-09-24T22:14:23.469Z,3.07
2022-09-24T22:16:50.116Z,1.30
2022-09-24T22:19:16.788Z,1.60
2022-09-24T22:21:44.025Z,1.87
2022-09-24T22:24:11.612Z,2.53
2022-09-24T22:26:38.370Z,3.90
2022-09-24T22:29:05.087Z,2.50
2022-09-24T22:31:31.844Z,2.80
2022-09-24T22:34:16.986Z,3.53
2022-09-24T22:36:43.712Z,2.47
2022-09-24T22:39:10.567Z,3.97
2022-09-24T22:41:39.751Z,1.20
2022-09-24T22:44:07.044Z,3.10
2022-09-24T22:46:35.858Z,1.63
2022-09-24T22:49:04.181Z,1.33
2022-09-24T22:51:31.015Z,2.40
2022-09-24T22:53:57.727Z,1.47
2022-09-24T22:56:26.157Z,1.87
2022-09-24T22:58:58.485Z,1.27
2022-09-24T23:01:39.505Z,2.93
2022-09-24T23:04:06.313Z,2.50
2022-09-24T23:06:33.882Z,1.53
2022-09-24T23:09:01.151Z,2.43
2022-09-24T23:11:30.338Z,1.27
2022-09-24T23:14:02.558Z,2.30
2022-09-24T23:16:31.818Z,1.90
2022-09-24T23:19:00.806Z,1.37
2022-09-24T23:21:31.135Z,2.60
2022-09-24T23:24:00.405Z,3.07
2022-09-24T23:26:27.944Z,1.97
2022-09-24T23:28:56.118Z,1.47
2022-09-24T23:31:25.766Z,3.40
2022-09-24T23:33:54.342Z,1.90
2022-09-24T23:36:21.280Z,3.50
2022-09-24T23:38:47.833Z,1.77
2022-09-24T23:41:15.180Z,2.30
2022-09-24T23:43:42.205Z,3.17
2022-09-24T23:46:09.930Z,2.93
2022-09-24T23:48:37.253Z,3.43
2022-09-24T23:51:04.368Z,3.23
2022-09-24T23:53:31.301Z,1.90
2022-09-24T23:55:57.865Z,2.37
2022-09-24T23:58:24.901Z,6.53
